Archer City, Texas
Current Conditions -  °F | °C
As of 12:35 AM on Saturday 29 Nov 2014 (Local Time) from KCWC Reporting Station
Clear Clear  
Wind Chill: 59°   Ceiling: Unl
Heat Index: 59°   Visibility: 10mi
Dew Point: 40°   Wind: 10mph
Humidity: 50%   Direction: 200°SSW
Pressure: 29.88"   Gusts: NA
Location:  33.6°N, 98.63°W
Report Text: KCWC 290635Z AUTO 20009KT 10SM CLR 15/05 A2988 RMK AO2 T01480045
Loading
Personal Weather Stations






























Interactive Weather Map New forecast layout! Learn more

10-Day Weather Forecast

Advertisements
Track Severe Weather on mobile